Kamenomostskiy, Russia
Current Conditions -  °F | °C
As of 7:00 PM on Sunday 25 Jan 2015 (Local Time) from URSS Reporting Station
Overcast Overcast  
Wind Chill: 52°   Ceiling: 13000
Heat Index: 52°   Visibility: 6mi
Dew Point: 32°   Wind: 0mph
Humidity: 47%   Direction: NA
Pressure: 30.03"   Gusts: NA
Location:  44.18°N, 40.14°E
Report Text: URSS 251600Z 00000MPS 9999 OVC130 11/00 Q1017 NOSIG RMKR02/04003MPS QFE761 06000070 02//////
Loading
Personal Weather Stations






























Interactive Weather Map New forecast layout! Learn more

10-Day Weather Forecast

Advertisements
Track Severe Weather on mobile